sensor_id;sensor_type;location;lat;lon;timestamp;temperature;humidity
16980;DHT22;42288;52.182;21.156;2022-08-07T00:00:10;16.50;98.50
16980;DHT22;42288;52.182;21.156;2022-08-07T00:02:35;16.50;98.80
16980;DHT22;42288;52.182;21.156;2022-08-07T00:05:02;16.60;98.00
16980;DHT22;42288;52.182;21.156;2022-08-07T00:07:28;16.50;97.40
16980;DHT22;42288;52.182;21.156;2022-08-07T00:09:53;16.60;97.60
16980;DHT22;42288;52.182;21.156;2022-08-07T00:12:19;16.50;97.30
16980;DHT22;42288;52.182;21.156;2022-08-07T00:14:44;16.50;97.40
16980;DHT22;42288;52.182;21.156;2022-08-07T00:17:10;16.50;97.00
16980;DHT22;42288;52.182;21.156;2022-08-07T00:19:35;16.50;97.30
16980;DHT22;42288;52.182;21.156;2022-08-07T00:22:01;16.40;97.10
16980;DHT22;42288;52.182;21.156;2022-08-07T00:24:27;16.40;97.20
16980;DHT22;42288;52.182;21.156;2022-08-07T00:26:52;16.30;97.10
16980;DHT22;42288;52.182;21.156;2022-08-07T00:29:18;16.20;96.90
16980;DHT22;42288;52.182;21.156;2022-08-07T00:31:46;16.00;97.30
16980;DHT22;42288;52.182;21.156;2022-08-07T00:34:12;15.80;97.80
16980;DHT22;42288;52.182;21.156;2022-08-07T00:36:38;15.70;98.00
16980;DHT22;42288;52.182;21.156;2022-08-07T00:39:03;15.50;98.50
16980;DHT22;42288;52.182;21.156;2022-08-07T00:41:32;15.60;98.70
16980;DHT22;42288;52.182;21.156;2022-08-07T00:43:58;15.60;98.60
16980;DHT22;42288;52.182;21.156;2022-08-07T00:46:24;15.60;98.70
16980;DHT22;42288;52.182;21.156;2022-08-07T00:48:50;15.70;98.70
16980;DHT22;42288;52.182;21.156;2022-08-07T00:51:16;15.80;98.50
16980;DHT22;42288;52.182;21.156;2022-08-07T00:53:42;15.70;98.40
16980;DHT22;42288;52.182;21.156;2022-08-07T00:56:07;15.80;98.60
16980;DHT22;42288;52.182;21.156;2022-08-07T00:58:36;16.00;98.60
16980;DHT22;42288;52.182;21.156;2022-08-07T01:01:01;16.00;98.30
16980;DHT22;42288;52.182;21.156;2022-08-07T01:03:27;15.90;98.10
16980;DHT22;42288;52.182;21.156;2022-08-07T01:05:54;15.80;98.10
16980;DHT22;42288;52.182;21.156;2022-08-07T01:08:20;15.80;98.20
16980;DHT22;42288;52.182;21.156;2022-08-07T01:10:46;15.60;98.30
16980;DHT22;42288;52.182;21.156;2022-08-07T01:13:12;15.50;98.60
16980;DHT22;42288;52.182;21.156;2022-08-07T01:15:38;15.40;98.60
16980;DHT22;42288;52.182;21.156;2022-08-07T01:18:04;15.40;98.90
16980;DHT22;42288;52.182;21.156;2022-08-07T01:20:33;15.40;98.90
16980;DHT22;42288;52.182;21.156;2022-08-07T01:23:02;15.40;98.90
16980;DHT22;42288;52.182;21.156;2022-08-07T01:25:29;15.40;98.80
16980;DHT22;42288;52.182;21.156;2022-08-07T01:27:55;15.20;99.00
16980;DHT22;42288;52.182;21.156;2022-08-07T01:30:22;15.20;99.40
16980;DHT22;42288;52.182;21.156;2022-08-07T01:32:49;15.10;99.90
16980;DHT22;42288;52.182;21.156;2022-08-07T01:35:14;15.10;99.30
16980;DHT22;42288;52.182;21.156;2022-08-07T01:37:40;15.10;99.00
16980;DHT22;42288;52.182;21.156;2022-08-07T01:40:06;15.00;99.00
16980;DHT22;42288;52.182;21.156;2022-08-07T01:42:33;15.10;98.80
16980;DHT22;42288;52.182;21.156;2022-08-07T01:44:59;15.20;98.70
16980;DHT22;42288;52.182;21.156;2022-08-07T01:47:25;15.10;98.60
16980;DHT22;42288;52.182;21.156;2022-08-07T01:49:51;15.10;98.60
16980;DHT22;42288;52.182;21.156;2022-08-07T01:52:17;15.10;98.70
16980;DHT22;42288;52.182;21.156;2022-08-07T01:54:44;15.00;98.90
16980;DHT22;42288;52.182;21.156;2022-08-07T01:57:18;14.80;99.00
16980;DHT22;42288;52.182;21.156;2022-08-07T01:59:51;14.90;99.20
16980;DHT22;42288;52.182;21.156;2022-08-07T02:02:30;14.80;99.00
16980;DHT22;42288;52.182;21.156;2022-08-07T02:05:10;14.90;98.90
16980;DHT22;42288;52.182;21.156;2022-08-07T02:07:45;15.00;98.80
16980;DHT22;42288;52.182;21.156;2022-08-07T02:10:13;15.00;98.50
16980;DHT22;42288;52.182;21.156;2022-08-07T02:12:42;14.90;98.20
16980;DHT22;42288;52.182;21.156;2022-08-07T02:15:09;14.90;98.00
16980;DHT22;42288;52.182;21.156;2022-08-07T02:17:37;14.70;97.90
16980;DHT22;42288;52.182;21.156;2022-08-07T02:20:04;14.70;98.00
16980;DHT22;42288;52.182;21.156;2022-08-07T02:22:31;14.80;98.00
16980;DHT22;42288;52.182;21.156;2022-08-07T02:24:57;14.60;97.80
16980;DHT22;42288;52.182;21.156;2022-08-07T02:27:25;14.60;98.20
16980;DHT22;42288;52.182;21.156;2022-08-07T02:29:53;14.50;98.00
16980;DHT22;42288;52.182;21.156;2022-08-07T02:32:21;14.60;97.90
16980;DHT22;42288;52.182;21.156;2022-08-07T02:34:48;14.50;97.70
16980;DHT22;42288;52.182;21.156;2022-08-07T02:37:16;14.40;97.70
16980;DHT22;42288;52.182;21.156;2022-08-07T02:39:45;14.40;98.10
16980;DHT22;42288;52.182;21.156;2022-08-07T02:42:12;14.50;97.90
16980;DHT22;42288;52.182;21.156;2022-08-07T02:44:43;14.40;97.80
16980;DHT22;42288;52.182;21.156;2022-08-07T02:47:10;14.40;98.10
16980;DHT22;42288;52.182;21.156;2022-08-07T02:49:36;14.40;98.00
16980;DHT22;42288;52.182;21.156;2022-08-07T02:52:04;14.30;98.20
16980;DHT22;42288;52.182;21.156;2022-08-07T02:54:31;14.30;98.30
16980;DHT22;42288;52.182;21.156;2022-08-07T02:57:00;14.10;98.10
16980;DHT22;42288;52.182;21.156;2022-08-07T02:59:27;14.10;98.20
16980;DHT22;42288;52.182;21.156;2022-08-07T03:01:54;14.10;98.10
16980;DHT22;42288;52.182;21.156;2022-08-07T03:04:22;14.10;98.00
16980;DHT22;42288;52.182;21.156;2022-08-07T03:06:49;14.00;97.90
16980;DHT22;42288;52.182;21.156;2022-08-07T03:09:16;13.80;97.90
16980;DHT22;42288;52.182;21.156;2022-08-07T03:11:44;13.80;98.00
16980;DHT22;42288;52.182;21.156;2022-08-07T03:14:10;14.00;98.00
16980;DHT22;42288;52.182;21.156;2022-08-07T03:16:37;14.00;97.60
16980;DHT22;42288;52.182;21.156;2022-08-07T03:19:03;14.20;97.30
16980;DHT22;42288;52.182;21.156;2022-08-07T03:21:28;14.20;96.90
16980;DHT22;42288;52.182;21.156;2022-08-07T03:23:56;14.00;96.80
16980;DHT22;42288;52.182;21.156;2022-08-07T03:26:24;14.10;97.00
16980;DHT22;42288;52.182;21.156;2022-08-07T03:28:50;14.20;96.90
16980;DHT22;42288;52.182;21.156;2022-08-07T03:31:19;14.10;96.60
16980;DHT22;42288;52.182;21.156;2022-08-07T03:33:58;14.20;96.50
16980;DHT22;42288;52.182;21.156;2022-08-07T03:36:26;14.30;96.40
16980;DHT22;42288;52.182;21.156;2022-08-07T03:38:54;14.40;96.40
16980;DHT22;42288;52.182;21.156;2022-08-07T03:41:21;14.10;96.10
16980;DHT22;42288;52.182;21.156;2022-08-07T03:43:47;14.10;96.30
16980;DHT22;42288;52.182;21.156;2022-08-07T03:46:13;14.10;96.60
16980;DHT22;42288;52.182;21.156;2022-08-07T03:48:40;14.30;96.80
16980;DHT22;42288;52.182;21.156;2022-08-07T03:51:07;14.20;96.50
16980;DHT22;42288;52.182;21.156;2022-08-07T03:53:33;14.20;96.70
16980;DHT22;42288;52.182;21.156;2022-08-07T03:56:00;14.20;96.60
16980;DHT22;42288;52.182;21.156;2022-08-07T03:58:26;14.30;96.70
16980;DHT22;42288;52.182;21.156;2022-08-07T04:00:53;14.00;96.70
16980;DHT22;42288;52.182;21.156;2022-08-07T04:03:20;14.00;97.30
16980;DHT22;42288;52.182;21.156;2022-08-07T04:05:46;14.10;97.80
16980;DHT22;42288;52.182;21.156;2022-08-07T04:08:13;14.00;97.90
16980;DHT22;42288;52.182;21.156;2022-08-07T04:10:40;14.10;98.20
16980;DHT22;42288;52.182;21.156;2022-08-07T04:13:06;14.00;98.70
16980;DHT22;42288;52.182;21.156;2022-08-07T04:15:33;14.30;99.00
16980;DHT22;42288;52.182;21.156;2022-08-07T04:18:00;14.20;98.60
16980;DHT22;42288;52.182;21.156;2022-08-07T04:20:26;14.10;98.70
16980;DHT22;42288;52.182;21.156;2022-08-07T04:22:52;14.30;99.00
16980;DHT22;42288;52.182;21.156;2022-08-07T04:25:18;14.50;98.90
16980;DHT22;42288;52.182;21.156;2022-08-07T04:27:45;14.60;98.80
16980;DHT22;42288;52.182;21.156;2022-08-07T04:30:11;14.90;98.90
16980;DHT22;42288;52.182;21.156;2022-08-07T04:32:37;14.80;98.90
16980;DHT22;42288;52.182;21.156;2022-08-07T04:35:04;14.80;99.10
16980;DHT22;42288;52.182;21.156;2022-08-07T04:37:31;14.90;99.50
16980;DHT22;42288;52.182;21.156;2022-08-07T04:39:57;15.20;99.50
16980;DHT22;42288;52.182;21.156;2022-08-07T04:42:22;15.30;99.60
16980;DHT22;42288;52.182;21.156;2022-08-07T04:44:53;15.60;99.20
16980;DHT22;42288;52.182;21.156;2022-08-07T04:48:11;15.90;98.80
16980;DHT22;42288;52.182;21.156;2022-08-07T04:52:52;16.30;98.20
16980;DHT22;42288;52.182;21.156;2022-08-07T04:55:35;16.50;97.70
16980;DHT22;42288;52.182;21.156;2022-08-07T05:00:42;16.70;97.10
16980;DHT22;42288;52.182;21.156;2022-08-07T05:05:49;16.80;96.70
16980;DHT22;42288;52.182;21.156;2022-08-07T05:08:21;16.80;96.60
16980;DHT22;42288;52.182;21.156;2022-08-07T05:10:56;17.10;96.10
16980;DHT22;42288;52.182;21.156;2022-08-07T05:15:57;17.20;95.60
16980;DHT22;42288;52.182;21.156;2022-08-07T05:18:32;17.20;95.30
16980;DHT22;42288;52.182;21.156;2022-08-07T05:21:02;17.30;95.20
16980;DHT22;42288;52.182;21.156;2022-08-07T05:23:33;17.50;95.20
16980;DHT22;42288;52.182;21.156;2022-08-07T05:26:02;17.70;94.10
16980;DHT22;42288;52.182;21.156;2022-08-07T05:28:29;17.90;93.70
16980;DHT22;42288;52.182;21.156;2022-08-07T05:30:57;17.80;93.60
16980;DHT22;42288;52.182;21.156;2022-08-07T05:33:24;18.00;93.30
16980;DHT22;42288;52.182;21.156;2022-08-07T05:35:51;18.10;93.70
16980;DHT22;42288;52.182;21.156;2022-08-07T05:38:19;18.20;92.90
16980;DHT22;42288;52.182;21.156;2022-08-07T05:40:46;17.90;91.60
16980;DHT22;42288;52.182;21.156;2022-08-07T05:43:13;18.20;92.30
16980;DHT22;42288;52.182;21.156;2022-08-07T05:45:40;18.40;92.10
16980;DHT22;42288;52.182;21.156;2022-08-07T05:48:07;18.50;91.60
16980;DHT22;42288;52.182;21.156;2022-08-07T05:50:32;18.60;91.20
16980;DHT22;42288;52.182;21.156;2022-08-07T05:53:00;18.70;90.60
16980;DHT22;42288;52.182;21.156;2022-08-07T05:55:26;18.90;90.70
16980;DHT22;42288;52.182;21.156;2022-08-07T05:57:53;18.90;90.90
16980;DHT22;42288;52.182;21.156;2022-08-07T06:00:20;18.90;90.10
16980;DHT22;42288;52.182;21.156;2022-08-07T06:02:48;19.10;90.30
16980;DHT22;42288;52.182;21.156;2022-08-07T06:05:14;19.30;89.90
16980;DHT22;42288;52.182;21.156;2022-08-07T06:07:41;19.40;88.30
16980;DHT22;42288;52.182;21.156;2022-08-07T06:10:08;19.40;86.90
16980;DHT22;42288;52.182;21.156;2022-08-07T06:12:35;19.20;84.00
16980;DHT22;42288;52.182;21.156;2022-08-07T06:15:01;19.30;85.40
16980;DHT22;42288;52.182;21.156;2022-08-07T06:17:27;19.40;85.60
16980;DHT22;42288;52.182;21.156;2022-08-07T06:19:53;19.50;85.70
16980;DHT22;42288;52.182;21.156;2022-08-07T06:22:20;19.60;83.80
16980;DHT22;42288;52.182;21.156;2022-08-07T06:24:46;19.70;83.10
16980;DHT22;42288;52.182;21.156;2022-08-07T06:27:22;19.60;82.20
16980;DHT22;42288;52.182;21.156;2022-08-07T06:29:48;19.70;83.40
16980;DHT22;42288;52.182;21.156;2022-08-07T06:32:13;20.00;82.70
16980;DHT22;42288;52.182;21.156;2022-08-07T06:34:39;20.00;81.60
16980;DHT22;42288;52.182;21.156;2022-08-07T06:37:04;20.00;82.20
16980;DHT22;42288;52.182;21.156;2022-08-07T06:39:30;20.20;81.70
16980;DHT22;42288;52.182;21.156;2022-08-07T06:42:10;20.20;81.90
16980;DHT22;42288;52.182;21.156;2022-08-07T06:44:37;20.30;80.20
16980;DHT22;42288;52.182;21.156;2022-08-07T06:47:04;20.40;77.10
16980;DHT22;42288;52.182;21.156;2022-08-07T06:49:30;20.10;78.00
16980;DHT22;42288;52.182;21.156;2022-08-07T06:51:56;20.30;79.00
16980;DHT22;42288;52.182;21.156;2022-08-07T06:54:24;20.40;77.80
16980;DHT22;42288;52.182;21.156;2022-08-07T06:56:52;20.50;77.60
16980;DHT22;42288;52.182;21.156;2022-08-07T06:59:25;20.30;77.50
16980;DHT22;42288;52.182;21.156;2022-08-07T07:01:51;20.20;75.40
16980;DHT22;42288;52.182;21.156;2022-08-07T07:04:18;20.20;78.10
16980;DHT22;42288;52.182;21.156;2022-08-07T07:06:44;20.30;78.90
16980;DHT22;42288;52.182;21.156;2022-08-07T07:09:22;20.50;77.00
16980;DHT22;42288;52.182;21.156;2022-08-07T07:14:55;20.60;75.20
16980;DHT22;42288;52.182;21.156;2022-08-07T07:18:03;20.60;75.10
16980;DHT22;42288;52.182;21.156;2022-08-07T07:20:36;20.30;75.60
16980;DHT22;42288;52.182;21.156;2022-08-07T07:23:05;20.30;74.90
16980;DHT22;42288;52.182;21.156;2022-08-07T07:25:33;20.50;74.40
16980;DHT22;42288;52.182;21.156;2022-08-07T07:28:20;20.70;73.80
16980;DHT22;42288;52.182;21.156;2022-08-07T07:30:57;20.80;72.50
16980;DHT22;42288;52.182;21.156;2022-08-07T07:33:25;20.80;70.80
16980;DHT22;42288;52.182;21.156;2022-08-07T07:35:52;20.90;70.90
16980;DHT22;42288;52.182;21.156;2022-08-07T07:38:21;21.10;70.10
16980;DHT22;42288;52.182;21.156;2022-08-07T07:40:49;20.80;70.70
16980;DHT22;42288;52.182;21.156;2022-08-07T07:43:17;20.60;69.10
16980;DHT22;42288;52.182;21.156;2022-08-07T07:45:45;20.80;71.40
16980;DHT22;42288;52.182;21.156;2022-08-07T07:48:14;21.10;70.20
16980;DHT22;42288;52.182;21.156;2022-08-07T07:50:41;21.40;66.80
16980;DHT22;42288;52.182;21.156;2022-08-07T07:53:07;21.10;66.60
16980;DHT22;42288;52.182;21.156;2022-08-07T07:55:34;20.90;66.80
16980;DHT22;42288;52.182;21.156;2022-08-07T07:58:00;20.70;66.10
16980;DHT22;42288;52.182;21.156;2022-08-07T08:00:28;20.70;68.10
16980;DHT22;42288;52.182;21.156;2022-08-07T08:02:57;20.80;68.00
16980;DHT22;42288;52.182;21.156;2022-08-07T08:05:23;20.90;67.90
16980;DHT22;42288;52.182;21.156;2022-08-07T08:07:49;20.90;68.40
16980;DHT22;42288;52.182;21.156;2022-08-07T08:10:15;21.20;69.50
16980;DHT22;42288;52.182;21.156;2022-08-07T08:12:42;21.20;64.90
16980;DHT22;42288;52.182;21.156;2022-08-07T08:15:09;21.20;63.70
16980;DHT22;42288;52.182;21.156;2022-08-07T08:17:35;21.20;65.70
16980;DHT22;42288;52.182;21.156;2022-08-07T08:20:04;21.20;66.30
16980;DHT22;42288;52.182;21.156;2022-08-07T08:22:31;21.30;63.70
16980;DHT22;42288;52.182;21.156;2022-08-07T08:25:17;21.40;62.50
16980;DHT22;42288;52.182;21.156;2022-08-07T08:28:03;21.40;61.50
16980;DHT22;42288;52.182;21.156;2022-08-07T08:30:32;21.20;60.60
16980;DHT22;42288;52.182;21.156;2022-08-07T08:33:01;21.20;60.70
16980;DHT22;42288;52.182;21.156;2022-08-07T08:35:28;21.20;61.20
16980;DHT22;42288;52.182;21.156;2022-08-07T08:37:58;21.40;63.00
16980;DHT22;42288;52.182;21.156;2022-08-07T08:40:40;21.50;60.30
16980;DHT22;42288;52.182;21.156;2022-08-07T08:43:20;21.60;60.50
16980;DHT22;42288;52.182;21.156;2022-08-07T08:46:08;21.70;60.50
16980;DHT22;42288;52.182;21.156;2022-08-07T08:48:45;21.70;59.60
16980;DHT22;42288;52.182;21.156;2022-08-07T08:51:37;21.60;58.70
16980;DHT22;42288;52.182;21.156;2022-08-07T08:56:37;21.70;58.60
16980;DHT22;42288;52.182;21.156;2022-08-07T09:04:46;21.70;56.00
16980;DHT22;42288;52.182;21.156;2022-08-07T09:07:18;21.70;56.40
16980;DHT22;42288;52.182;21.156;2022-08-07T09:10:24;21.80;56.10
16980;DHT22;42288;52.182;21.156;2022-08-07T09:15:49;22.20;58.50
16980;DHT22;42288;52.182;21.156;2022-08-07T09:23:55;22.30;56.10
16980;DHT22;42288;52.182;21.156;2022-08-07T09:26:38;22.30;55.10
16980;DHT22;42288;52.182;21.156;2022-08-07T09:29:45;22.40;55.00
16980;DHT22;42288;52.182;21.156;2022-08-07T09:35:06;22.80;54.40
16980;DHT22;42288;52.182;21.156;2022-08-07T09:37:43;22.80;56.10
16980;DHT22;42288;52.182;21.156;2022-08-07T09:45:42;23.00;55.80
16980;DHT22;42288;52.182;21.156;2022-08-07T09:48:35;23.00;55.60
16980;DHT22;42288;52.182;21.156;2022-08-07T09:51:33;23.20;55.70
16980;DHT22;42288;52.182;21.156;2022-08-07T09:54:07;23.30;55.10
16980;DHT22;42288;52.182;21.156;2022-08-07T10:00:00;23.10;54.60
16980;DHT22;42288;52.182;21.156;2022-08-07T10:02:58;23.00;54.80
16980;DHT22;42288;52.182;21.156;2022-08-07T10:16:59;23.70;54.30
16980;DHT22;42288;52.182;21.156;2022-08-07T10:25:27;24.20;53.30
16980;DHT22;42288;52.182;21.156;2022-08-07T10:30:51;23.90;52.50
16980;DHT22;42288;52.182;21.156;2022-08-07T10:39:10;24.20;51.00
16980;DHT22;42288;52.182;21.156;2022-08-07T10:41:51;24.50;51.00
16980;DHT22;42288;52.182;21.156;2022-08-07T10:44:24;24.90;50.50
16980;DHT22;42288;52.182;21.156;2022-08-07T10:47:04;25.30;50.90
16980;DHT22;42288;52.182;21.156;2022-08-07T10:49:46;25.70;48.30
16980;DHT22;42288;52.182;21.156;2022-08-07T10:55:23;32.20;43.80
16980;DHT22;42288;52.182;21.156;2022-08-07T11:01:03;35.90;34.10
16980;DHT22;42288;52.182;21.156;2022-08-07T11:03:48;36.80;32.50
16980;DHT22;42288;52.182;21.156;2022-08-07T11:06:20;38.00;31.60
16980;DHT22;42288;52.182;21.156;2022-08-07T11:09:11;38.10;29.80
16980;DHT22;42288;52.182;21.156;2022-08-07T11:12:01;39.40;28.60
16980;DHT22;42288;52.182;21.156;2022-08-07T11:14:40;37.80;28.10
16980;DHT22;42288;52.182;21.156;2022-08-07T11:17:27;35.60;28.60
16980;DHT22;42288;52.182;21.156;2022-08-07T11:22:35;37.40;30.10
16980;DHT22;42288;52.182;21.156;2022-08-07T11:25:12;39.30;28.40
16980;DHT22;42288;52.182;21.156;2022-08-07T11:30:14;40.80;27.10
16980;DHT22;42288;52.182;21.156;2022-08-07T11:35:29;40.40;26.40
16980;DHT22;42288;52.182;21.156;2022-08-07T11:38:10;38.50;26.50
16980;DHT22;42288;52.182;21.156;2022-08-07T11:41:05;35.30;28.60
16980;DHT22;42288;52.182;21.156;2022-08-07T11:46:48;31.20;33.30
16980;DHT22;42288;52.182;21.156;2022-08-07T11:54:53;30.00;36.70
16980;DHT22;42288;52.182;21.156;2022-08-07T11:57:45;28.90;36.80
16980;DHT22;42288;52.182;21.156;2022-08-07T12:00:44;28.10;38.80
16980;DHT22;42288;52.182;21.156;2022-08-07T12:07:00;27.00;39.60
16980;DHT22;42288;52.182;21.156;2022-08-07T12:09:50;26.80;40.20
16980;DHT22;42288;52.182;21.156;2022-08-07T12:12:24;26.50;41.20
16980;DHT22;42288;52.182;21.156;2022-08-07T12:18:02;26.40;40.70
16980;DHT22;42288;52.182;21.156;2022-08-07T12:20:41;26.30;41.90
16980;DHT22;42288;52.182;21.156;2022-08-07T12:23:41;26.20;42.00
16980;DHT22;42288;52.182;21.156;2022-08-07T12:26:18;26.20;40.30
16980;DHT22;42288;52.182;21.156;2022-08-07T12:34:39;25.80;42.70
16980;DHT22;42288;52.182;21.156;2022-08-07T12:37:07;25.70;42.40
16980;DHT22;42288;52.182;21.156;2022-08-07T12:39:35;25.70;41.40
16980;DHT22;42288;52.182;21.156;2022-08-07T12:42:02;25.40;41.60
16980;DHT22;42288;52.182;21.156;2022-08-07T12:44:30;25.20;42.90
16980;DHT22;42288;52.182;21.156;2022-08-07T12:49:57;25.10;43.30
16980;DHT22;42288;52.182;21.156;2022-08-07T12:55:08;24.30;43.40
16980;DHT22;42288;52.182;21.156;2022-08-07T12:57:38;24.40;43.80
16980;DHT22;42288;52.182;21.156;2022-08-07T13:00:06;24.40;44.10
16980;DHT22;42288;52.182;21.156;2022-08-07T13:03:29;24.20;43.80
16980;DHT22;42288;52.182;21.156;2022-08-07T13:06:37;24.20;43.10
16980;DHT22;42288;52.182;21.156;2022-08-07T13:09:41;24.20;43.90
16980;DHT22;42288;52.182;21.156;2022-08-07T13:12:25;24.10;44.10
16980;DHT22;42288;52.182;21.156;2022-08-07T13:17:53;24.10;45.80
16980;DHT22;42288;52.182;21.156;2022-08-07T13:20:44;24.20;45.50
16980;DHT22;42288;52.182;21.156;2022-08-07T13:23:49;24.40;46.40
16980;DHT22;42288;52.182;21.156;2022-08-07T13:26:24;24.30;46.90
16980;DHT22;42288;52.182;21.156;2022-08-07T13:29:02;24.60;47.80
16980;DHT22;42288;52.182;21.156;2022-08-07T13:31:38;24.60;47.50
16980;DHT22;42288;52.182;21.156;2022-08-07T13:34:34;24.60;46.10
16980;DHT22;42288;52.182;21.156;2022-08-07T13:37:07;24.20;45.20
16980;DHT22;42288;52.182;21.156;2022-08-07T13:39:42;24.10;46.50
16980;DHT22;42288;52.182;21.156;2022-08-07T13:42:10;23.90;46.70
16980;DHT22;42288;52.182;21.156;2022-08-07T13:44:39;23.90;48.10
16980;DHT22;42288;52.182;21.156;2022-08-07T13:47:08;24.40;46.30
16980;DHT22;42288;52.182;21.156;2022-08-07T13:49:38;25.20;45.90
16980;DHT22;42288;52.182;21.156;2022-08-07T13:52:07;26.70;44.50
16980;DHT22;42288;52.182;21.156;2022-08-07T13:54:35;28.70;42.20
16980;DHT22;42288;52.182;21.156;2022-08-07T13:57:03;29.90;39.30
16980;DHT22;42288;52.182;21.156;2022-08-07T13:59:36;28.60;39.30
16980;DHT22;42288;52.182;21.156;2022-08-07T14:02:06;28.30;38.80
16980;DHT22;42288;52.182;21.156;2022-08-07T14:07:08;27.80;40.40
16980;DHT22;42288;52.182;21.156;2022-08-07T14:09:37;26.50;42.90
16980;DHT22;42288;52.182;21.156;2022-08-07T14:12:06;26.40;44.20
16980;DHT22;42288;52.182;21.156;2022-08-07T14:14:42;26.30;43.00
16980;DHT22;42288;52.182;21.156;2022-08-07T14:17:10;26.10;43.80
16980;DHT22;42288;52.182;21.156;2022-08-07T14:19:46;26.20;43.30
16980;DHT22;42288;52.182;21.156;2022-08-07T14:22:17;26.50;42.90
16980;DHT22;42288;52.182;21.156;2022-08-07T14:24:48;26.70;42.80
16980;DHT22;42288;52.182;21.156;2022-08-07T14:27:18;26.40;42.60
16980;DHT22;42288;52.182;21.156;2022-08-07T14:29:49;26.30;43.20
16980;DHT22;42288;52.182;21.156;2022-08-07T14:32:18;26.20;44.70
16980;DHT22;42288;52.182;21.156;2022-08-07T14:34:46;26.20;44.80
16980;DHT22;42288;52.182;21.156;2022-08-07T14:37:16;26.00;44.50
16980;DHT22;42288;52.182;21.156;2022-08-07T14:39:46;25.80;44.40
16980;DHT22;42288;52.182;21.156;2022-08-07T14:42:12;25.70;45.70
16980;DHT22;42288;52.182;21.156;2022-08-07T14:44:44;25.10;46.10
16980;DHT22;42288;52.182;21.156;2022-08-07T14:47:13;24.70;47.00
16980;DHT22;42288;52.182;21.156;2022-08-07T14:49:40;24.50;48.00
16980;DHT22;42288;52.182;21.156;2022-08-07T14:52:08;24.10;48.30
16980;DHT22;42288;52.182;21.156;2022-08-07T14:54:37;24.10;48.20
16980;DHT22;42288;52.182;21.156;2022-08-07T14:57:05;24.20;47.70
16980;DHT22;42288;52.182;21.156;2022-08-07T14:59:35;24.20;47.20
16980;DHT22;42288;52.182;21.156;2022-08-07T15:02:22;24.20;46.40
16980;DHT22;42288;52.182;21.156;2022-08-07T15:04:48;24.30;47.90
16980;DHT22;42288;52.182;21.156;2022-08-07T15:07:22;24.50;47.60
16980;DHT22;42288;52.182;21.156;2022-08-07T15:09:52;24.70;46.90
16980;DHT22;42288;52.182;21.156;2022-08-07T15:12:22;24.80;47.30
16980;DHT22;42288;52.182;21.156;2022-08-07T15:15:10;24.90;48.40
16980;DHT22;42288;52.182;21.156;2022-08-07T15:17:43;24.80;47.90
16980;DHT22;42288;52.182;21.156;2022-08-07T15:20:11;24.80;48.00
16980;DHT22;42288;52.182;21.156;2022-08-07T15:22:48;24.70;47.60
16980;DHT22;42288;52.182;21.156;2022-08-07T15:25:19;24.70;47.80
16980;DHT22;42288;52.182;21.156;2022-08-07T15:27:51;24.70;48.50
16980;DHT22;42288;52.182;21.156;2022-08-07T15:30:20;25.30;47.30
16980;DHT22;42288;52.182;21.156;2022-08-07T15:32:49;26.00;44.90
16980;DHT22;42288;52.182;21.156;2022-08-07T15:35:19;25.60;45.20
16980;DHT22;42288;52.182;21.156;2022-08-07T15:37:57;26.10;45.20
16980;DHT22;42288;52.182;21.156;2022-08-07T15:40:25;26.10;44.70
16980;DHT22;42288;52.182;21.156;2022-08-07T15:43:16;25.70;45.10
16980;DHT22;42288;52.182;21.156;2022-08-07T15:45:43;25.70;45.40
16980;DHT22;42288;52.182;21.156;2022-08-07T15:50:44;25.50;47.00
16980;DHT22;42288;52.182;21.156;2022-08-07T15:53:16;25.30;47.30
16980;DHT22;42288;52.182;21.156;2022-08-07T15:55:52;25.10;47.40
16980;DHT22;42288;52.182;21.156;2022-08-07T15:58:27;24.90;47.80
16980;DHT22;42288;52.182;21.156;2022-08-07T16:00:56;25.20;48.50
16980;DHT22;42288;52.182;21.156;2022-08-07T16:03:24;24.90;48.20
16980;DHT22;42288;52.182;21.156;2022-08-07T16:05:51;24.80;48.20
16980;DHT22;42288;52.182;21.156;2022-08-07T16:08:22;24.60;48.50
16980;DHT22;42288;52.182;21.156;2022-08-07T16:11:00;24.20;47.50
16980;DHT22;42288;52.182;21.156;2022-08-07T16:13:37;24.00;49.00
16980;DHT22;42288;52.182;21.156;2022-08-07T16:21:45;23.70;50.00
16980;DHT22;42288;52.182;21.156;2022-08-07T16:24:31;23.70;50.70
16980;DHT22;42288;52.182;21.156;2022-08-07T16:32:31;24.20;49.20
16980;DHT22;42288;52.182;21.156;2022-08-07T16:37:46;23.90;50.30
16980;DHT22;42288;52.182;21.156;2022-08-07T17:07:39;22.90;53.40
16980;DHT22;42288;52.182;21.156;2022-08-07T17:15:57;22.50;54.10
16980;DHT22;42288;52.182;21.156;2022-08-07T17:18:56;22.40;54.60
16980;DHT22;42288;52.182;21.156;2022-08-07T17:21:32;22.40;54.30
16980;DHT22;42288;52.182;21.156;2022-08-07T17:26:35;22.40;53.90
16980;DHT22;42288;52.182;21.156;2022-08-07T17:29:17;22.20;54.10
16980;DHT22;42288;52.182;21.156;2022-08-07T17:32:38;22.00;54.70
16980;DHT22;42288;52.182;21.156;2022-08-07T17:34:45;21.90;55.70
16980;DHT22;42288;52.182;21.156;2022-08-07T17:37:23;22.00;56.00
16980;DHT22;42288;52.182;21.156;2022-08-07T17:39:57;22.00;56.70
16980;DHT22;42288;52.182;21.156;2022-08-07T17:45:08;21.80;57.50
16980;DHT22;42288;52.182;21.156;2022-08-07T17:48:05;21.80;58.10
16980;DHT22;42288;52.182;21.156;2022-08-07T17:53:08;21.50;58.90
16980;DHT22;42288;52.182;21.156;2022-08-07T17:56:01;21.50;59.00
16980;DHT22;42288;52.182;21.156;2022-08-07T17:58:38;21.20;59.50
16980;DHT22;42288;52.182;21.156;2022-08-07T18:01:10;21.10;60.70
16980;DHT22;42288;52.182;21.156;2022-08-07T18:03:50;20.90;62.00
16980;DHT22;42288;52.182;21.156;2022-08-07T18:06:21;20.80;63.10
16980;DHT22;42288;52.182;21.156;2022-08-07T18:08:54;20.80;64.00
16980;DHT22;42288;52.182;21.156;2022-08-07T18:11:47;20.90;64.60
16980;DHT22;42288;52.182;21.156;2022-08-07T18:17:30;20.60;64.30
16980;DHT22;42288;52.182;21.156;2022-08-07T18:20:05;20.40;65.90
16980;DHT22;42288;52.182;21.156;2022-08-07T18:25:24;20.10;67.80
16980;DHT22;42288;52.182;21.156;2022-08-07T18:28:14;19.90;69.90
16980;DHT22;42288;52.182;21.156;2022-08-07T18:41:53;19.40;74.30
16980;DHT22;42288;52.182;21.156;2022-08-07T18:47:16;19.40;76.00
16980;DHT22;42288;52.182;21.156;2022-08-07T18:50:07;19.40;76.00
16980;DHT22;42288;52.182;21.156;2022-08-07T18:53:15;19.30;75.80
16980;DHT22;42288;52.182;21.156;2022-08-07T19:01:47;19.10;77.20